sensor_id;sensor_type;location;lat;lon;timestamp;temperature;humidity
12041;DHT22;6081;48.734;9.108;2022-07-22T00:32:02;19.20;99.90
12041;DHT22;6081;48.734;9.108;2022-07-22T00:42:04;19.10;99.90
12041;DHT22;6081;48.734;9.108;2022-07-22T00:52:07;18.80;99.90
12041;DHT22;6081;48.734;9.108;2022-07-22T01:02:09;18.80;99.90
12041;DHT22;6081;48.734;9.108;2022-07-22T01:12:18;18.70;99.90
12041;DHT22;6081;48.734;9.108;2022-07-22T01:22:23;19.10;99.90
12041;DHT22;6081;48.734;9.108;2022-07-22T01:32:28;18.80;99.90
12041;DHT22;6081;48.734;9.108;2022-07-22T01:42:33;18.50;99.90
12041;DHT22;6081;48.734;9.108;2022-07-22T01:52:39;18.30;99.90
12041;DHT22;6081;48.734;9.108;2022-07-22T02:02:44;18.30;99.90
12041;DHT22;6081;48.734;9.108;2022-07-22T02:12:50;18.30;99.90
12041;DHT22;6081;48.734;9.108;2022-07-22T02:22:57;18.10;99.90
12041;DHT22;6081;48.734;9.108;2022-07-22T03:50:12;17.30;99.90
12041;DHT22;6081;48.734;9.108;2022-07-22T04:00:19;17.30;99.90
12041;DHT22;6081;48.734;9.108;2022-07-22T04:10:26;17.10;99.90
12041;DHT22;6081;48.734;9.108;2022-07-22T04:20:32;17.10;99.90
12041;DHT22;6081;48.734;9.108;2022-07-22T04:30:40;17.20;99.90
12041;DHT22;6081;48.734;9.108;2022-07-22T04:40:45;17.50;99.90
12041;DHT22;6081;48.734;9.108;2022-07-22T04:50:49;17.50;99.90
12041;DHT22;6081;48.734;9.108;2022-07-22T05:00:55;17.60;99.90
12041;DHT22;6081;48.734;9.108;2022-07-22T05:10:58;18.00;99.90
12041;DHT22;6081;48.734;9.108;2022-07-22T05:21:00;18.30;99.90
12041;DHT22;6081;48.734;9.108;2022-07-22T05:31:04;18.50;99.90
12041;DHT22;6081;48.734;9.108;2022-07-22T05:41:07;19.00;99.90
12041;DHT22;6081;48.734;9.108;2022-07-22T05:51:14;25.70;99.90
12041;DHT22;6081;48.734;9.108;2022-07-22T06:01:16;29.30;99.90
12041;DHT22;6081;48.734;9.108;2022-07-22T06:21:30;32.30;96.00
12041;DHT22;6081;48.734;9.108;2022-07-22T06:31:32;34.40;92.80
12041;DHT22;6081;48.734;9.108;2022-07-22T06:41:35;34.60;90.30
12041;DHT22;6081;48.734;9.108;2022-07-22T06:51:37;34.90;87.90
12041;DHT22;6081;48.734;9.108;2022-07-22T07:01:41;35.10;83.90
12041;DHT22;6081;48.734;9.108;2022-07-22T07:11:43;35.80;81.60
12041;DHT22;6081;48.734;9.108;2022-07-22T07:21:46;35.60;79.10
12041;DHT22;6081;48.734;9.108;2022-07-22T07:31:49;36.00;78.30
12041;DHT22;6081;48.734;9.108;2022-07-22T07:41:52;34.10;83.60
12041;DHT22;6081;48.734;9.108;2022-07-22T07:51:54;33.30;87.40
12041;DHT22;6081;48.734;9.108;2022-07-22T08:01:57;32.70;89.10
12041;DHT22;6081;48.734;9.108;2022-07-22T08:11:59;32.50;88.50
12041;DHT22;6081;48.734;9.108;2022-07-22T08:22:02;32.20;88.30
12041;DHT22;6081;48.734;9.108;2022-07-22T08:32:05;31.90;90.90
12041;DHT22;6081;48.734;9.108;2022-07-22T08:42:08;31.50;90.50
12041;DHT22;6081;48.734;9.108;2022-07-22T08:52:10;31.10;90.90
12041;DHT22;6081;48.734;9.108;2022-07-22T09:02:13;31.70;91.30
12041;DHT22;6081;48.734;9.108;2022-07-22T09:12:15;30.80;90.60
12041;DHT22;6081;48.734;9.108;2022-07-22T09:22:34;30.60;89.80
12041;DHT22;6081;48.734;9.108;2022-07-22T09:32:40;30.60;92.40
12041;DHT22;6081;48.734;9.108;2022-07-22T09:42:48;30.80;91.10
12041;DHT22;6081;48.734;9.108;2022-07-22T09:52:53;30.20;92.20
12041;DHT22;6081;48.734;9.108;2022-07-22T10:02:57;29.70;92.70
12041;DHT22;6081;48.734;9.108;2022-07-22T10:13:02;29.70;91.70
12041;DHT22;6081;48.734;9.108;2022-07-22T10:23:06;29.30;93.80
12041;DHT22;6081;48.734;9.108;2022-07-22T10:33:10;29.90;92.10
12041;DHT22;6081;48.734;9.108;2022-07-22T10:43:15;29.20;93.00
12041;DHT22;6081;48.734;9.108;2022-07-22T10:53:22;29.50;92.40
12041;DHT22;6081;48.734;9.108;2022-07-22T11:03:26;30.10;92.20
12041;DHT22;6081;48.734;9.108;2022-07-22T11:13:31;30.40;91.80
12041;DHT22;6081;48.734;9.108;2022-07-22T11:23:34;30.30;91.50
12041;DHT22;6081;48.734;9.108;2022-07-22T11:33:36;30.70;88.90
12041;DHT22;6081;48.734;9.108;2022-07-22T11:43:41;30.40;90.00
12041;DHT22;6081;48.734;9.108;2022-07-22T11:53:46;31.00;88.80
12041;DHT22;6081;48.734;9.108;2022-07-22T12:03:50;31.10;87.90
12041;DHT22;6081;48.734;9.108;2022-07-22T12:13:53;31.30;87.30
12041;DHT22;6081;48.734;9.108;2022-07-22T12:24:01;31.30;88.90
12041;DHT22;6081;48.734;9.108;2022-07-22T12:34:03;31.70;85.30
12041;DHT22;6081;48.734;9.108;2022-07-22T12:44:07;31.70;85.00
12041;DHT22;6081;48.734;9.108;2022-07-22T12:54:09;32.10;85.20
12041;DHT22;6081;48.734;9.108;2022-07-22T13:04:12;31.90;84.80
12041;DHT22;6081;48.734;9.108;2022-07-22T13:14:14;32.20;83.40
12041;DHT22;6081;48.734;9.108;2022-07-22T13:24:17;31.60;83.90
12041;DHT22;6081;48.734;9.108;2022-07-22T13:34:19;31.70;85.10
12041;DHT22;6081;48.734;9.108;2022-07-22T13:44:22;31.80;84.80
12041;DHT22;6081;48.734;9.108;2022-07-22T13:54:24;31.50;86.50
12041;DHT22;6081;48.734;9.108;2022-07-22T14:04:27;31.80;84.00
12041;DHT22;6081;48.734;9.108;2022-07-22T14:14:29;31.70;80.50
12041;DHT22;6081;48.734;9.108;2022-07-22T14:24:32;31.90;82.90
12041;DHT22;6081;48.734;9.108;2022-07-22T14:34:34;31.30;82.50
12041;DHT22;6081;48.734;9.108;2022-07-22T14:44:38;31.10;83.10
12041;DHT22;6081;48.734;9.108;2022-07-22T14:54:41;31.40;81.30
12041;DHT22;6081;48.734;9.108;2022-07-22T15:04:44;31.50;80.00
12041;DHT22;6081;48.734;9.108;2022-07-22T15:14:46;31.40;81.90
12041;DHT22;6081;48.734;9.108;2022-07-22T15:24:49;31.10;81.00
12041;DHT22;6081;48.734;9.108;2022-07-22T15:34:51;31.10;79.80
12041;DHT22;6081;48.734;9.108;2022-07-22T15:44:54;31.00;81.20
12041;DHT22;6081;48.734;9.108;2022-07-22T15:54:56;31.20;80.20
12041;DHT22;6081;48.734;9.108;2022-07-22T16:04:59;31.00;80.80
12041;DHT22;6081;48.734;9.108;2022-07-22T16:15:01;31.00;81.70
12041;DHT22;6081;48.734;9.108;2022-07-22T16:25:05;30.70;81.80
12041;DHT22;6081;48.734;9.108;2022-07-22T16:35:08;30.60;82.70
12041;DHT22;6081;48.734;9.108;2022-07-22T16:45:12;31.20;81.00
12041;DHT22;6081;48.734;9.108;2022-07-22T16:55:13;31.60;79.30
12041;DHT22;6081;48.734;9.108;2022-07-22T17:05:17;31.30;79.10
12041;DHT22;6081;48.734;9.108;2022-07-22T17:15:18;31.00;80.20
12041;DHT22;6081;48.734;9.108;2022-07-22T17:25:22;30.90;79.80
12041;DHT22;6081;48.734;9.108;2022-07-22T17:35:24;30.50;79.70
12041;DHT22;6081;48.734;9.108;2022-07-22T17:45:27;30.40;82.30
12041;DHT22;6081;48.734;9.108;2022-07-22T17:55:29;29.80;83.50
12041;DHT22;6081;48.734;9.108;2022-07-22T18:05:32;29.20;87.10
12041;DHT22;6081;48.734;9.108;2022-07-22T18:15:34;28.50;89.30
12041;DHT22;6081;48.734;9.108;2022-07-22T18:25:38;28.10;90.20
12041;DHT22;6081;48.734;9.108;2022-07-22T18:35:39;27.70;90.90
12041;DHT22;6081;48.734;9.108;2022-07-22T18:45:43;27.30;91.30
12041;DHT22;6081;48.734;9.108;2022-07-22T18:55:44;27.00;92.20
12041;DHT22;6081;48.734;9.108;2022-07-22T19:05:48;26.70;92.90
12041;DHT22;6081;48.734;9.108;2022-07-22T19:15:50;26.40;94.00
12041;DHT22;6081;48.734;9.108;2022-07-22T19:25:57;26.20;94.90
12041;DHT22;6081;48.734;9.108;2022-07-22T19:35:58;26.00;96.60
12041;DHT22;6081;48.734;9.108;2022-07-22T19:46:02;26.00;96.30
12041;DHT22;6081;48.734;9.108;2022-07-22T19:56:04;25.90;96.70
12041;DHT22;6081;48.734;9.108;2022-07-22T20:06:07;25.70;98.00
12041;DHT22;6081;48.734;9.108;2022-07-22T20:16:09;25.50;99.90
12041;DHT22;6081;48.734;9.108;2022-07-22T20:26:12;25.50;99.90
12041;DHT22;6081;48.734;9.108;2022-07-22T20:36:14;25.20;99.90
12041;DHT22;6081;48.734;9.108;2022-07-22T20:46:17;25.00;99.90
12041;DHT22;6081;48.734;9.108;2022-07-22T20:56:19;25.00;99.90
12041;DHT22;6081;48.734;9.108;2022-07-22T21:06:22;25.30;99.90
12041;DHT22;6081;48.734;9.108;2022-07-22T21:16:24;25.20;99.90
12041;DHT22;6081;48.734;9.108;2022-07-22T21:26:27;24.90;99.90
12041;DHT22;6081;48.734;9.108;2022-07-22T21:36:29;24.70;99.90
12041;DHT22;6081;48.734;9.108;2022-07-22T21:46:32;24.70;99.90
12041;DHT22;6081;48.734;9.108;2022-07-22T21:56:34;24.70;99.90
12041;DHT22;6081;48.734;9.108;2022-07-22T22:06:55;24.80;99.90
12041;DHT22;6081;48.734;9.108;2022-07-22T22:16:57;24.60;99.90
12041;DHT22;6081;48.734;9.108;2022-07-22T22:27:05;24.40;99.90
12041;DHT22;6081;48.734;9.108;2022-07-22T22:37:07;24.20;99.90
12041;DHT22;6081;48.734;9.108;2022-07-22T22:47:10;23.80;99.90
12041;DHT22;6081;48.734;9.108;2022-07-22T22:57:12;24.00;99.90
12041;DHT22;6081;48.734;9.108;2022-07-22T23:07:15;24.00;99.90
12041;DHT22;6081;48.734;9.108;2022-07-22T23:17:17;23.90;99.90
12041;DHT22;6081;48.734;9.108;2022-07-22T23:27:20;23.90;99.90
12041;DHT22;6081;48.734;9.108;2022-07-22T23:37:22;23.80;99.90
12041;DHT22;6081;48.734;9.108;2022-07-22T23:47:25;23.80;99.90
12041;DHT22;6081;48.734;9.108;2022-07-22T23:57:27;23.60;99.90
